createdAt,value
2022-09-15T00:02:10.764Z,2.13
2022-09-15T00:04:37.249Z,2.58
2022-09-15T00:07:03.696Z,3.08
2022-09-15T00:09:30.373Z,3.05
2022-09-15T00:11:57.446Z,2.47
2022-09-15T00:14:24.020Z,2.60
2022-09-15T00:16:50.365Z,2.50
2022-09-15T00:19:16.906Z,2.58
2022-09-15T00:21:43.514Z,2.92
2022-09-15T00:24:11.268Z,2.40
2022-09-15T00:26:38.512Z,2.38
2022-09-15T00:29:04.885Z,2.55
2022-09-15T00:31:32.642Z,2.50
2022-09-15T00:34:00.838Z,2.30
2022-09-15T00:36:27.351Z,2.47
2022-09-15T00:38:54.208Z,2.90
2022-09-15T00:41:22.469Z,2.63
2022-09-15T00:44:01.334Z,2.80
2022-09-15T00:46:32.626Z,2.70
2022-09-15T00:49:07.192Z,2.75
2022-09-15T00:51:47.591Z,2.70
2022-09-15T00:54:26.239Z,2.92
2022-09-15T00:56:55.347Z,2.60
2022-09-15T00:59:25.346Z,2.47
2022-09-15T01:01:58.375Z,2.70
2022-09-15T01:04:24.964Z,2.38
2022-09-15T01:06:57.003Z,2.70
2022-09-15T01:09:43.975Z,2.80
2022-09-15T01:12:10.556Z,2.60
2022-09-15T01:14:37.158Z,3.47
2022-09-15T01:17:16.701Z,2.95
2022-09-15T01:19:42.983Z,3.13
2022-09-15T01:22:48.061Z,2.58
2022-09-15T01:25:38.109Z,3.05
2022-09-15T01:28:34.713Z,2.63
2022-09-15T01:31:13.021Z,3.20
2022-09-15T01:34:05.981Z,2.60
2022-09-15T01:36:44.031Z,2.83
2022-09-15T01:39:16.480Z,2.83
2022-09-15T01:41:57.118Z,2.70
2022-09-15T01:46:57.173Z,2.60
2022-09-15T01:51:53.966Z,2.70
2022-09-15T01:54:24.914Z,2.70
2022-09-15T01:56:51.495Z,2.88
2022-09-15T01:59:17.863Z,3.22
2022-09-15T02:01:54.194Z,3.28
2022-09-15T02:04:41.010Z,3.17
2022-09-15T02:07:21.183Z,2.85
2022-09-15T02:09:57.819Z,2.75
2022-09-15T02:12:48.451Z,2.72
2022-09-15T02:17:51.026Z,2.60
2022-09-15T02:20:31.367Z,2.67
2022-09-15T02:23:05.078Z,2.35
2022-09-15T02:25:38.208Z,2.80
2022-09-15T02:28:07.466Z,2.38
2022-09-15T02:30:38.112Z,2.30
2022-09-15T02:33:09.277Z,2.50
2022-09-15T02:35:37.095Z,2.72
2022-09-15T02:38:10.922Z,2.05
2022-09-15T02:40:41.437Z,2.22
2022-09-15T02:45:36.644Z,2.92
2022-09-15T02:48:03.469Z,2.47
2022-09-15T02:50:30.061Z,1.83
2022-09-15T02:52:57.543Z,2.17
2022-09-15T02:55:24.513Z,2.78
2022-09-15T02:57:50.982Z,2.45
2022-09-15T03:00:17.719Z,2.30
2022-09-15T03:02:48.210Z,2.45
2022-09-15T03:05:15.482Z,2.70
2022-09-15T03:07:41.896Z,2.40
2022-09-15T03:10:10.326Z,3.30
2022-09-15T03:12:38.582Z,2.50
2022-09-15T03:15:07.282Z,2.70
2022-09-15T03:17:35.505Z,2.30
2022-09-15T03:20:02.982Z,2.63
2022-09-15T03:22:29.698Z,2.70
2022-09-15T03:24:56.049Z,2.05
2022-09-15T03:27:22.600Z,2.45
2022-09-15T03:29:49.074Z,2.40
2022-09-15T03:32:15.407Z,2.17
2022-09-15T03:34:42.118Z,2.67
2022-09-15T03:37:08.529Z,2.50
2022-09-15T03:39:35.100Z,2.42
2022-09-15T03:42:01.699Z,2.50
2022-09-15T03:44:28.226Z,2.05
2022-09-15T03:46:54.900Z,2.30
2022-09-15T03:49:21.448Z,2.50
2022-09-15T03:51:47.713Z,2.40
2022-09-15T03:54:14.098Z,2.08
2022-09-15T03:56:40.387Z,2.35
2022-09-15T03:59:06.878Z,2.08
2022-09-15T04:01:33.462Z,2.10
2022-09-15T04:03:59.979Z,1.80
2022-09-15T04:06:27.031Z,1.85
2022-09-15T04:08:54.702Z,2.35
2022-09-15T04:11:22.658Z,1.85
2022-09-15T04:13:49.793Z,1.75
2022-09-15T04:16:18.790Z,2.22
2022-09-15T04:18:46.155Z,1.90
2022-09-15T04:21:18.143Z,1.60
2022-09-15T04:23:45.380Z,1.50
2022-09-15T04:26:21.995Z,1.60
2022-09-15T04:28:48.584Z,1.73
2022-09-15T04:31:17.410Z,1.95
2022-09-15T04:33:45.347Z,1.40
2022-09-15T04:36:16.919Z,1.60
2022-09-15T04:38:44.573Z,1.70
2022-09-15T04:41:12.654Z,1.90
2022-09-15T04:43:39.053Z,1.40
2022-09-15T04:46:05.494Z,1.55
2022-09-15T04:48:32.450Z,1.42
2022-09-15T04:51:04.303Z,1.60
2022-09-15T04:53:30.749Z,2.00
2022-09-15T04:56:24.306Z,1.33
2022-09-15T04:59:00.912Z,1.40
2022-09-15T05:01:33.181Z,1.30
2022-09-15T05:04:01.710Z,1.70
2022-09-15T05:06:28.729Z,1.58
2022-09-15T05:08:57.203Z,1.52
2022-09-15T05:11:24.801Z,1.50
2022-09-15T05:13:51.351Z,1.50
2022-09-15T05:16:20.646Z,2.00
2022-09-15T05:18:49.502Z,1.35
2022-09-15T05:21:18.791Z,1.48
2022-09-15T05:23:45.883Z,1.65
2022-09-15T05:26:14.512Z,1.80
2022-09-15T05:28:41.629Z,1.27
2022-09-15T05:31:10.174Z,1.30
2022-09-15T05:33:37.020Z,1.10
2022-09-15T05:36:04.063Z,1.65
2022-09-15T05:38:31.635Z,1.67
2022-09-15T05:41:10.104Z,2.30
2022-09-15T05:43:38.543Z,2.80
2022-09-15T05:46:07.392Z,1.90
2022-09-15T05:48:34.325Z,2.00
2022-09-15T05:51:01.057Z,2.05
2022-09-15T05:53:27.799Z,1.77
2022-09-15T05:55:59.050Z,1.50
2022-09-15T05:58:26.777Z,1.20
2022-09-15T06:00:53.859Z,1.20
2022-09-15T06:03:20.632Z,1.40
2022-09-15T06:05:47.351Z,1.05
2022-09-15T06:08:14.274Z,1.58
2022-09-15T06:10:40.867Z,1.25
2022-09-15T06:13:07.442Z,1.35
2022-09-15T06:15:34.007Z,1.40
2022-09-15T06:18:00.417Z,1.55
2022-09-15T06:20:26.876Z,1.65
2022-09-15T06:22:53.761Z,1.20
2022-09-15T06:25:20.148Z,1.30
2022-09-15T06:27:49.354Z,1.10
2022-09-15T06:30:15.700Z,1.40
2022-09-15T06:32:46.174Z,1.38
2022-09-15T06:35:14.391Z,1.13
2022-09-15T06:37:40.805Z,1.40
2022-09-15T06:40:08.097Z,1.10
2022-09-15T06:42:34.558Z,1.75
2022-09-15T06:45:01.014Z,1.70
2022-09-15T06:47:27.673Z,1.20
2022-09-15T06:49:54.000Z,1.30
2022-09-15T06:52:20.563Z,1.50
2022-09-15T06:54:46.917Z,1.40
2022-09-15T06:57:13.478Z,1.48
2022-09-15T06:59:39.807Z,1.30
2022-09-15T07:02:06.415Z,1.50
2022-09-15T07:04:34.590Z,1.70
2022-09-15T07:07:01.050Z,1.58
2022-09-15T07:09:27.462Z,1.23
2022-09-15T07:11:53.833Z,1.20
2022-09-15T07:14:20.157Z,1.35
2022-09-15T07:16:46.644Z,1.52
2022-09-15T07:19:13.168Z,2.00
2022-09-15T07:21:39.511Z,1.55
2022-09-15T07:24:07.494Z,2.25
2022-09-15T07:26:34.676Z,1.50
2022-09-15T07:29:04.443Z,1.67
2022-09-15T07:31:33.453Z,1.52
2022-09-15T07:34:00.939Z,1.33
2022-09-15T07:36:28.285Z,1.63
2022-09-15T07:38:54.644Z,1.10
2022-09-15T07:41:23.412Z,1.42
2022-09-15T07:43:54.342Z,1.75
2022-09-15T07:46:22.610Z,1.70
2022-09-15T07:48:50.974Z,1.30
2022-09-15T07:51:17.824Z,1.55
2022-09-15T07:53:45.783Z,1.20
2022-09-15T07:56:12.949Z,1.20
2022-09-15T07:58:39.740Z,1.40
2022-09-15T08:01:09.093Z,2.10
2022-09-15T08:03:35.553Z,1.88
2022-09-15T08:06:04.289Z,1.55
2022-09-15T08:08:30.891Z,1.60
2022-09-15T08:10:57.343Z,1.52
2022-09-15T08:13:24.071Z,1.42
2022-09-15T08:15:50.875Z,1.60
2022-09-15T08:18:17.559Z,1.50
2022-09-15T08:20:44.111Z,1.40
2022-09-15T08:23:11.102Z,1.60
2022-09-15T08:25:40.780Z,1.80
2022-09-15T08:28:07.240Z,1.60
2022-09-15T08:30:33.608Z,1.95
2022-09-15T08:33:00.111Z,1.67
2022-09-15T08:35:26.539Z,1.40
2022-09-15T08:37:54.219Z,1.90
2022-09-15T08:40:27.568Z,2.10
2022-09-15T08:42:59.507Z,1.88
2022-09-15T08:45:29.429Z,2.15
2022-09-15T08:48:03.597Z,2.33
2022-09-15T08:50:33.798Z,1.85
2022-09-15T08:53:05.992Z,1.45
2022-09-15T08:55:50.414Z,2.03
2022-09-15T08:58:20.396Z,2.50
2022-09-15T09:00:49.299Z,2.50
2022-09-15T09:03:48.139Z,1.95
2022-09-15T09:06:47.753Z,1.77
2022-09-15T09:09:28.973Z,1.60
2022-09-15T09:12:20.821Z,1.50
2022-09-15T09:15:19.137Z,1.40
2022-09-15T09:17:55.014Z,2.13
2022-09-15T09:20:34.118Z,2.08
2022-09-15T09:23:04.179Z,1.42
2022-09-15T09:25:30.516Z,2.00
2022-09-15T09:27:58.317Z,1.40
2022-09-15T09:30:27.728Z,1.60
2022-09-15T09:33:19.758Z,1.63
2022-09-15T09:35:49.930Z,1.70
2022-09-15T09:38:22.455Z,1.58
2022-09-15T09:40:49.646Z,1.20
2022-09-15T09:43:16.279Z,1.40
2022-09-15T09:45:43.003Z,1.30
2022-09-15T09:48:21.911Z,1.83
2022-09-15T09:50:48.674Z,1.10
2022-09-15T09:53:26.389Z,1.45
2022-09-15T09:55:54.719Z,1.40
2022-09-15T09:58:24.594Z,0.98
2022-09-15T10:00:53.620Z,1.60
2022-09-15T10:03:32.034Z,1.00
2022-09-15T10:06:03.969Z,1.13
2022-09-15T10:08:30.564Z,1.35
2022-09-15T10:11:06.715Z,0.95
2022-09-15T10:13:35.266Z,1.25
2022-09-15T10:16:05.265Z,0.98
2022-09-15T10:18:35.362Z,1.15
2022-09-15T10:21:04.797Z,1.42
2022-09-15T10:23:33.310Z,1.08
2022-09-15T10:26:15.017Z,1.55
2022-09-15T10:28:42.441Z,0.90
2022-09-15T10:31:11.239Z,1.13
2022-09-15T10:33:40.021Z,1.25
2022-09-15T10:36:12.935Z,0.80
2022-09-15T10:38:43.684Z,1.17
2022-09-15T10:41:44.645Z,1.05
2022-09-15T10:44:22.893Z,1.10
2022-09-15T10:47:22.773Z,1.00
2022-09-15T10:49:52.216Z,1.15
2022-09-15T10:52:27.548Z,0.57
2022-09-15T10:55:52.440Z,0.40
2022-09-15T10:58:40.913Z,1.55
2022-09-15T11:01:29.170Z,1.10
2022-09-15T11:04:26.037Z,0.70
2022-09-15T11:07:23.148Z,1.10
2022-09-15T11:10:01.667Z,0.70
2022-09-15T11:12:58.877Z,0.75
2022-09-15T11:15:35.608Z,1.10
2022-09-15T11:18:34.288Z,0.77
2022-09-15T11:21:10.964Z,0.90
2022-09-15T11:23:47.339Z,0.90
2022-09-15T11:26:20.885Z,0.95
2022-09-15T11:28:50.489Z,1.10
2022-09-15T11:31:30.321Z,1.35
2022-09-15T11:34:03.503Z,1.20
2022-09-15T11:36:52.811Z,1.48
2022-09-15T11:39:23.469Z,2.13
2022-09-15T11:44:27.589Z,1.98
2022-09-15T11:47:05.093Z,2.38
2022-09-15T11:49:35.919Z,2.00
2022-09-15T11:52:11.232Z,1.58
2022-09-15T11:55:05.119Z,2.00
2022-09-15T11:57:38.676Z,2.30
2022-09-15T12:00:13.709Z,2.90
2022-09-15T12:02:52.146Z,2.47
2022-09-15T12:05:32.988Z,3.20
2022-09-15T12:08:09.368Z,2.58
2022-09-15T12:10:42.444Z,3.30
2022-09-15T12:13:17.659Z,3.20
2022-09-15T12:15:45.877Z,3.75
2022-09-15T12:18:38.583Z,3.88
2022-09-15T12:21:17.142Z,4.85
2022-09-15T12:24:02.772Z,3.92
2022-09-15T12:26:32.561Z,3.00
2022-09-15T12:29:23.413Z,3.10
2022-09-15T12:34:37.822Z,3.03
2022-09-15T12:37:15.272Z,3.28
2022-09-15T12:39:47.059Z,2.85
2022-09-15T12:42:19.537Z,3.25
2022-09-15T12:44:56.577Z,3.10
2022-09-15T12:47:28.227Z,2.63
2022-09-15T12:49:58.896Z,3.30
2022-09-15T12:54:57.283Z,4.78
2022-09-15T12:57:31.904Z,2.60
2022-09-15T13:00:19.589Z,3.35
2022-09-15T13:02:49.438Z,3.42
2022-09-15T13:05:41.834Z,3.30
2022-09-15T13:08:29.877Z,3.40
2022-09-15T13:11:22.137Z,3.60
2022-09-15T13:14:08.058Z,3.63
2022-09-15T13:16:40.522Z,3.95
2022-09-15T13:19:35.718Z,4.82
2022-09-15T13:22:16.268Z,3.67
2022-09-15T13:24:57.673Z,4.65
2022-09-15T13:27:42.387Z,4.47
2022-09-15T13:30:21.546Z,5.18
2022-09-15T13:33:00.340Z,4.70
2022-09-15T13:35:51.157Z,4.88
2022-09-15T13:38:27.828Z,4.60
2022-09-15T13:41:06.278Z,5.55
2022-09-15T13:43:57.010Z,5.50
2022-09-15T13:51:35.049Z,5.80
2022-09-15T13:54:16.293Z,5.82
2022-09-15T13:56:43.748Z,5.32
2022-09-15T13:59:19.585Z,5.00
2022-09-15T14:01:46.434Z,5.38
2022-09-15T14:04:18.856Z,3.63
2022-09-15T14:06:48.999Z,3.22
2022-09-15T14:09:28.133Z,4.22
2022-09-15T14:12:02.184Z,4.05
2022-09-15T14:14:37.199Z,4.07
2022-09-15T14:17:03.917Z,4.25
2022-09-15T14:19:37.495Z,3.38
2022-09-15T14:22:33.075Z,2.85
2022-09-15T14:25:04.979Z,2.90
2022-09-15T14:27:36.224Z,3.80
2022-09-15T14:30:06.211Z,3.35
2022-09-15T14:32:37.667Z,3.30
2022-09-15T14:35:07.849Z,4.22
2022-09-15T14:37:34.344Z,3.85
2022-09-15T14:40:03.337Z,2.88
2022-09-15T14:42:50.105Z,3.15
2022-09-15T14:48:15.764Z,2.72
2022-09-15T14:50:45.020Z,2.97
2022-09-15T14:53:17.324Z,2.90
2022-09-15T14:56:08.086Z,2.50
2022-09-15T14:58:50.955Z,3.33
2022-09-15T15:01:35.373Z,2.85
2022-09-15T15:04:28.580Z,3.38
2022-09-15T15:07:26.356Z,3.15
2022-09-15T15:10:00.898Z,2.65
2022-09-15T15:12:45.873Z,2.78
2022-09-15T15:15:15.282Z,2.97
2022-09-15T15:17:47.474Z,2.33
2022-09-15T15:20:20.270Z,2.63
2022-09-15T15:22:46.753Z,2.78
2022-09-15T15:25:24.634Z,2.63
2022-09-15T15:27:53.427Z,2.75
2022-09-15T15:30:30.051Z,2.60
2022-09-15T15:32:59.524Z,2.70
2022-09-15T15:35:26.425Z,2.28
2022-09-15T15:38:05.219Z,2.50
2022-09-15T15:40:33.469Z,2.33
2022-09-15T15:43:14.010Z,2.50
2022-09-15T15:45:52.375Z,2.40
2022-09-15T15:48:18.872Z,3.08
2022-09-15T15:50:45.275Z,3.13
2022-09-15T15:53:11.748Z,2.55
2022-09-15T15:55:40.875Z,2.45
2022-09-15T15:58:09.280Z,2.65
2022-09-15T16:00:40.205Z,2.55
2022-09-15T16:03:06.890Z,2.97
2022-09-15T16:05:34.460Z,2.50
2022-09-15T16:08:05.917Z,3.33
2022-09-15T16:10:48.013Z,2.70
2022-09-15T16:13:19.602Z,3.15
2022-09-15T16:15:46.530Z,2.90
2022-09-15T16:18:13.254Z,3.15
2022-09-15T16:20:40.529Z,3.42
2022-09-15T16:23:07.609Z,3.50
2022-09-15T16:25:56.054Z,4.00
2022-09-15T16:28:22.587Z,3.67
2022-09-15T16:30:49.135Z,2.92
2022-09-15T16:33:16.895Z,3.47
2022-09-15T16:35:49.029Z,3.08
2022-09-15T16:38:15.438Z,3.80
2022-09-15T16:40:41.839Z,3.53
2022-09-15T16:43:16.616Z,2.80
2022-09-15T16:45:43.664Z,3.20
2022-09-15T16:48:11.042Z,3.65
2022-09-15T16:50:42.690Z,3.88
2022-09-15T16:53:17.313Z,4.13
2022-09-15T16:55:52.589Z,3.72
2022-09-15T16:58:20.253Z,3.30
2022-09-15T17:00:48.341Z,4.00
2022-09-15T17:03:19.218Z,3.83
2022-09-15T17:05:48.825Z,4.32
2022-09-15T17:08:16.617Z,4.60
2022-09-15T17:10:43.098Z,4.28
2022-09-15T17:13:14.912Z,4.55
2022-09-15T17:15:41.591Z,4.10
2022-09-15T17:18:09.468Z,4.47
2022-09-15T17:20:39.410Z,4.57
2022-09-15T17:23:38.016Z,4.35
2022-09-15T17:26:10.355Z,4.20
2022-09-15T17:28:37.243Z,4.30
2022-09-15T17:31:20.894Z,3.85
2022-09-15T17:33:48.547Z,4.18
2022-09-15T17:36:15.856Z,4.32
2022-09-15T17:38:42.737Z,4.22
2022-09-15T17:41:17.802Z,4.57
2022-09-15T17:43:44.701Z,4.45
2022-09-15T17:46:11.409Z,5.03
2022-09-15T17:48:38.194Z,4.50
2022-09-15T17:51:06.441Z,5.32
2022-09-15T17:53:32.877Z,5.38
2022-09-15T17:55:59.501Z,5.20
2022-09-15T17:58:26.149Z,3.88
2022-09-15T18:00:53.151Z,5.18
2022-09-15T18:03:28.200Z,4.63
2022-09-15T18:05:56.475Z,4.93
2022-09-15T18:08:22.834Z,5.65
2022-09-15T18:10:49.862Z,4.70
2022-09-15T18:13:21.621Z,5.05
2022-09-15T18:15:49.126Z,4.75
2022-09-15T18:18:18.748Z,4.55
2022-09-15T18:20:45.939Z,4.90
2022-09-15T18:23:17.118Z,5.15
2022-09-15T18:25:44.787Z,4.70
2022-09-15T18:28:11.326Z,4.18
2022-09-15T18:30:39.446Z,4.35
2022-09-15T18:33:07.435Z,4.75
2022-09-15T18:35:34.338Z,4.10
2022-09-15T18:38:02.018Z,4.38
2022-09-15T18:40:28.475Z,4.97
2022-09-15T18:42:55.081Z,4.30
2022-09-15T18:45:21.663Z,4.35
2022-09-15T18:47:49.691Z,5.38
2022-09-15T18:50:18.187Z,5.15
2022-09-15T18:52:45.002Z,6.20
2022-09-15T18:55:14.430Z,6.25
2022-09-15T18:57:42.069Z,6.05
2022-09-15T19:00:13.000Z,5.90
2022-09-15T19:02:39.913Z,6.80
2022-09-15T19:05:07.864Z,6.97
2022-09-15T19:07:34.441Z,6.88
2022-09-15T19:10:01.190Z,6.10
2022-09-15T19:12:27.861Z,6.50
2022-09-15T19:14:54.273Z,5.85
2022-09-15T19:17:20.744Z,6.10
2022-09-15T19:19:47.276Z,6.13
2022-09-15T19:22:13.688Z,5.28
2022-09-15T19:24:40.213Z,5.30
2022-09-15T19:27:08.290Z,6.45
2022-09-15T19:29:35.981Z,6.40
2022-09-15T19:32:10.918Z,6.50
2022-09-15T19:34:38.911Z,5.72
2022-09-15T19:37:11.349Z,6.00
2022-09-15T19:39:39.765Z,6.68
2022-09-15T19:42:07.223Z,6.30
2022-09-15T19:44:34.208Z,6.13
2022-09-15T19:47:01.286Z,5.68
2022-09-15T19:49:28.011Z,6.35
2022-09-15T19:51:54.650Z,5.95
2022-09-15T19:54:25.903Z,5.60
2022-09-15T19:56:52.859Z,5.53
2022-09-15T19:59:19.856Z,5.53
2022-09-15T20:01:47.035Z,5.80
2022-09-15T20:04:14.348Z,5.63
2022-09-15T20:06:41.353Z,5.28
2022-09-15T20:09:08.794Z,4.82
2022-09-15T20:11:35.981Z,6.07
2022-09-15T20:14:03.413Z,6.50
2022-09-15T20:16:30.490Z,5.50
2022-09-15T20:18:57.370Z,6.30
2022-09-15T20:21:48.752Z,6.00
2022-09-15T20:24:13.634Z,6.07
2022-09-15T20:26:40.104Z,5.95
2022-09-15T20:29:06.430Z,5.90
2022-09-15T20:31:32.985Z,5.68
2022-09-15T20:34:00.289Z,5.80
2022-09-15T20:36:29.747Z,5.63
2022-09-15T20:38:56.910Z,6.38
2022-09-15T20:41:25.654Z,5.97
2022-09-15T20:43:52.271Z,6.57
2022-09-15T20:46:21.094Z,6.03
2022-09-15T20:48:47.887Z,6.82
2022-09-15T20:51:20.665Z,6.82
2022-09-15T20:53:49.490Z,6.07
2022-09-15T20:56:17.255Z,6.55
2022-09-15T20:58:43.800Z,6.45
2022-09-15T21:01:15.354Z,7.25
2022-09-15T21:03:43.314Z,7.47
2022-09-15T21:06:16.486Z,7.07
2022-09-15T21:08:43.234Z,7.53
2022-09-15T21:11:11.139Z,7.85
2022-09-15T21:13:39.204Z,7.38
2022-09-15T21:16:08.439Z,7.00
2022-09-15T21:18:37.129Z,7.30
2022-09-15T21:21:11.852Z,7.70
2022-09-15T21:23:45.689Z,6.78
2022-09-15T21:26:21.227Z,7.25
2022-09-15T21:28:48.202Z,7.55
2022-09-15T21:31:16.401Z,6.50
2022-09-15T21:33:43.951Z,7.38
2022-09-15T21:36:14.707Z,6.75
2022-09-15T21:38:42.567Z,7.30
2022-09-15T21:41:12.870Z,8.35
2022-09-15T21:43:41.079Z,8.02
2022-09-15T21:46:11.696Z,7.22
2022-09-15T21:51:06.058Z,6.53
2022-09-15T21:53:32.935Z,7.90
2022-09-15T21:56:07.024Z,7.40
2022-09-15T21:58:33.513Z,7.95
2022-09-15T22:01:09.604Z,7.75
2022-09-15T22:03:35.957Z,7.70
2022-09-15T22:06:02.295Z,8.05
2022-09-15T22:08:28.642Z,7.85
2022-09-15T22:10:59.842Z,7.40
2022-09-15T22:13:26.221Z,7.13
2022-09-15T22:15:59.543Z,7.78
2022-09-15T22:18:25.892Z,7.80
2022-09-15T22:21:03.320Z,8.27
2022-09-15T22:23:29.660Z,7.40
2022-09-15T22:26:00.130Z,7.72
2022-09-15T22:28:26.652Z,7.97
2022-09-15T22:31:00.556Z,7.22
2022-09-15T22:33:27.172Z,8.63
2022-09-15T22:35:53.621Z,7.20
2022-09-15T22:38:20.532Z,7.68
2022-09-15T22:40:47.098Z,7.75
2022-09-15T22:43:13.454Z,7.80
2022-09-15T22:45:40.036Z,7.07
2022-09-15T22:48:06.762Z,6.75
2022-09-15T22:50:33.433Z,7.85
2022-09-15T22:52:59.803Z,7.57
2022-09-15T22:55:26.416Z,7.65
2022-09-15T22:57:52.692Z,7.82
2022-09-15T23:00:19.233Z,6.50
2022-09-15T23:02:46.092Z,7.03
2022-09-15T23:05:12.871Z,6.55
2022-09-15T23:07:39.319Z,7.65
2022-09-15T23:10:05.981Z,7.53
2022-09-15T23:12:32.930Z,7.47
2022-09-15T23:14:59.307Z,7.88
2022-09-15T23:17:25.695Z,6.93
2022-09-15T23:19:52.027Z,6.95
2022-09-15T23:22:18.390Z,7.30
2022-09-15T23:24:44.722Z,8.10
2022-09-15T23:27:11.075Z,7.50
2022-09-15T23:29:37.375Z,6.32
2022-09-15T23:32:03.786Z,6.60
2022-09-15T23:34:30.261Z,7.03
2022-09-15T23:36:56.711Z,7.25
2022-09-15T23:39:24.212Z,6.90
2022-09-15T23:41:50.662Z,6.95
2022-09-15T23:44:16.992Z,8.02
2022-09-15T23:46:43.393Z,7.22
2022-09-15T23:49:09.861Z,7.32
2022-09-15T23:51:37.362Z,7.88
2022-09-15T23:54:03.833Z,7.38
2022-09-15T23:56:30.997Z,7.25
2022-09-15T23:58:57.412Z,7.47
